sensor_id;sensor_type;location;lat;lon;timestamp;pressure;altitude;pressure_sealevel;temperature;humidity
70053;BME280;57398;52.032;4.376;2023-03-03T00:00:47;102832.47;;;0.86;nan
70053;BME280;57398;52.032;4.376;2023-03-03T00:03:35;102830.94;;;0.83;nan
70053;BME280;57398;52.032;4.376;2023-03-03T00:06:23;102835.91;;;0.84;nan
70053;BME280;57398;52.032;4.376;2023-03-03T00:09:13;102832.97;;;0.78;nan
70053;BME280;57398;52.032;4.376;2023-03-03T00:12:16;102830.44;;;0.65;nan
70053;BME280;57398;52.032;4.376;2023-03-03T00:15:15;102843.00;;;0.68;nan
70053;BME280;57398;52.032;4.376;2023-03-03T00:18:16;102840.34;;;0.70;nan
70053;BME280;57398;52.032;4.376;2023-03-03T00:21:18;102833.09;;;0.63;nan
70053;BME280;57398;52.032;4.376;2023-03-03T00:24:20;102844.03;;;0.66;nan
70053;BME280;57398;52.032;4.376;2023-03-03T00:27:18;102841.38;;;0.67;nan
70053;BME280;57398;52.032;4.376;2023-03-03T00:30:19;102840.34;;;0.57;nan
70053;BME280;57398;52.032;4.376;2023-03-03T00:33:20;102849.47;;;0.61;nan
70053;BME280;57398;52.032;4.376;2023-03-03T00:36:23;102849.25;;;0.64;nan
70053;BME280;57398;52.032;4.376;2023-03-03T00:39:24;102844.25;;;0.62;nan
70053;BME280;57398;52.032;4.376;2023-03-03T00:42:14;102844.25;;;0.62;nan
70053;BME280;57398;52.032;4.376;2023-03-03T00:45:20;102844.44;;;0.59;nan
70053;BME280;57398;52.032;4.376;2023-03-03T00:48:23;102850.81;;;0.67;nan
70053;BME280;57398;52.032;4.376;2023-03-03T00:51:24;102843.63;;;0.72;nan
70053;BME280;57398;52.032;4.376;2023-03-03T00:54:13;102843.81;;;0.69;nan
70053;BME280;57398;52.032;4.376;2023-03-03T00:57:01;102852.75;;;0.76;nan
70053;BME280;57398;52.032;4.376;2023-03-03T00:59:49;102841.34;;;0.80;nan
70053;BME280;57398;52.032;4.376;2023-03-03T01:02:38;102857.31;;;0.83;nan
70053;BME280;57398;52.032;4.376;2023-03-03T01:05:27;102842.50;;;0.76;nan
70053;BME280;57398;52.032;4.376;2023-03-03T01:08:15;102845.56;;;0.81;nan
70053;BME280;57398;52.032;4.376;2023-03-03T01:11:06;102854.84;;;0.95;nan
70053;BME280;57398;52.032;4.376;2023-03-03T01:13:56;102853.09;;;0.95;nan
70053;BME280;57398;52.032;4.376;2023-03-03T01:16:44;102857.00;;;1.01;nan
70053;BME280;57398;52.032;4.376;2023-03-03T01:19:34;102849.91;;;1.04;nan
70053;BME280;57398;52.032;4.376;2023-03-03T01:22:22;102855.66;;;1.08;nan
70053;BME280;57398;52.032;4.376;2023-03-03T01:25:10;102856.06;;;1.15;nan
70053;BME280;57398;52.032;4.376;2023-03-03T01:27:58;102862.63;;;1.06;nan
70053;BME280;57398;52.032;4.376;2023-03-03T01:30:47;102862.09;;;1.14;nan
70053;BME280;57398;52.032;4.376;2023-03-03T01:33:35;102854.72;;;1.09;nan
70053;BME280;57398;52.032;4.376;2023-03-03T01:36:26;102860.56;;;1.11;nan
70053;BME280;57398;52.032;4.376;2023-03-03T01:39:14;102862.56;;;1.19;nan
70053;BME280;57398;52.032;4.376;2023-03-03T01:42:03;102857.47;;;1.19;nan
70053;BME280;57398;52.032;4.376;2023-03-03T01:45:10;102859.09;;;1.20;nan
70053;BME280;57398;52.032;4.376;2023-03-03T01:48:01;102859.53;;;1.14;nan
70053;BME280;57398;52.032;4.376;2023-03-03T01:50:54;102862.91;;;1.14;nan
70053;BME280;57398;52.032;4.376;2023-03-03T01:53:47;102861.28;;;1.13;nan
70053;BME280;57398;52.032;4.376;2023-03-03T01:56:36;102859.53;;;1.14;nan
70053;BME280;57398;52.032;4.376;2023-03-03T01:59:26;102853.38;;;1.16;nan
70053;BME280;57398;52.032;4.376;2023-03-03T02:02:16;102862.63;;;1.06;nan
70053;BME280;57398;52.032;4.376;2023-03-03T02:05:06;102863.44;;;1.07;nan
70053;BME280;57398;52.032;4.376;2023-03-03T02:07:54;102856.06;;;1.02;nan
70053;BME280;57398;52.032;4.376;2023-03-03T02:10:44;102849.84;;;0.93;nan
70053;BME280;57398;52.032;4.376;2023-03-03T02:13:33;102860.56;;;0.98;nan
70053;BME280;57398;52.032;4.376;2023-03-03T02:16:21;102847.72;;;0.87;nan
70053;BME280;57398;52.032;4.376;2023-03-03T02:19:15;102840.31;;;0.95;nan
70053;BME280;57398;52.032;4.376;2023-03-03T02:22:05;102843.81;;;0.94;nan
70053;BME280;57398;52.032;4.376;2023-03-03T02:24:56;102840.41;;;0.94;nan
70053;BME280;57398;52.032;4.376;2023-03-03T02:27:48;102852.69;;;1.01;nan
70053;BME280;57398;52.032;4.376;2023-03-03T02:30:37;102840.03;;;0.87;nan
70053;BME280;57398;52.032;4.376;2023-03-03T02:33:26;102842.59;;;0.87;nan
70053;BME280;57398;52.032;4.376;2023-03-03T02:36:17;102847.00;;;0.85;nan
70053;BME280;57398;52.032;4.376;2023-03-03T02:39:07;102838.78;;;0.80;nan
70053;BME280;57398;52.032;4.376;2023-03-03T02:42:00;102841.66;;;0.75;nan
70053;BME280;57398;52.032;4.376;2023-03-03T02:44:51;102845.97;;;0.75;nan
70053;BME280;57398;52.032;4.376;2023-03-03T02:47:39;102846.06;;;0.73;nan
70053;BME280;57398;52.032;4.376;2023-03-03T02:50:28;102836.56;;;0.75;nan
70053;BME280;57398;52.032;4.376;2023-03-03T02:53:16;102826.75;;;0.69;nan
70053;BME280;57398;52.032;4.376;2023-03-03T02:56:05;102839.63;;;0.68;nan
70053;BME280;57398;52.032;4.376;2023-03-03T02:58:55;102831.16;;;0.54;nan
70053;BME280;57398;52.032;4.376;2023-03-03T03:01:45;102831.06;;;0.56;nan
70053;BME280;57398;52.032;4.376;2023-03-03T03:04:33;102836.25;;;0.54;nan
70053;BME280;57398;52.032;4.376;2023-03-03T03:07:21;102838.31;;;0.49;nan
70053;BME280;57398;52.032;4.376;2023-03-03T03:10:10;102843.63;;;0.59;nan
70053;BME280;57398;52.032;4.376;2023-03-03T03:12:58;102847.00;;;0.59;nan
70053;BME280;57398;52.032;4.376;2023-03-03T03:15:46;102849.25;;;0.64;nan
70053;BME280;57398;52.032;4.376;2023-03-03T03:18:35;102845.47;;;0.57;nan
70053;BME280;57398;52.032;4.376;2023-03-03T03:21:24;102839.84;;;0.52;nan
70053;BME280;57398;52.032;4.376;2023-03-03T03:24:12;102847.44;;;0.53;nan
70053;BME280;57398;52.032;4.376;2023-03-03T03:27:00;102845.91;;;0.51;nan
70053;BME280;57398;52.032;4.376;2023-03-03T03:29:49;102855.19;;;0.52;nan
70053;BME280;57398;52.032;4.376;2023-03-03T03:32:37;102854.06;;;0.43;nan
70053;BME280;57398;52.032;4.376;2023-03-03T03:35:27;102856.63;;;0.30;nan
70053;BME280;57398;52.032;4.376;2023-03-03T03:38:15;102859.78;;;0.21;nan
70053;BME280;57398;52.032;4.376;2023-03-03T03:41:05;102856.00;;;0.14;nan
70053;BME280;57398;52.032;4.376;2023-03-03T03:43:54;102856.97;;;0.11;nan
70053;BME280;57398;52.032;4.376;2023-03-03T03:46:42;102853.72;;;0.09;nan
70053;BME280;57398;52.032;4.376;2023-03-03T03:49:30;102861.69;;;0.05;nan
70053;BME280;57398;52.032;4.376;2023-03-03T03:52:19;102854.41;;;-0.02;nan
70053;BME280;57398;52.032;4.376;2023-03-03T03:55:08;102857.88;;;-0.03;nan
70053;BME280;57398;52.032;4.376;2023-03-03T03:57:56;102858.56;;;-0.13;nan
70053;BME280;57398;52.032;4.376;2023-03-03T04:00:46;102859.53;;;-0.02;nan
70053;BME280;57398;52.032;4.376;2023-03-03T04:03:34;102863.91;;;-0.04;nan
70053;BME280;57398;52.032;4.376;2023-03-03T04:06:22;102871.16;;;-0.10;nan
70053;BME280;57398;52.032;4.376;2023-03-03T04:09:12;102873.25;;;-0.17;nan
70053;BME280;57398;52.032;4.376;2023-03-03T04:12:00;102867.06;;;-0.13;nan
70053;BME280;57398;52.032;4.376;2023-03-03T04:14:48;102880.63;;;-0.12;nan
70053;BME280;57398;52.032;4.376;2023-03-03T04:17:36;102876.88;;;-0.07;nan
70053;BME280;57398;52.032;4.376;2023-03-03T04:20:24;102880.56;;;-0.11;nan
70053;BME280;57398;52.032;4.376;2023-03-03T04:23:12;102883.69;;;-0.20;nan
70053;BME280;57398;52.032;4.376;2023-03-03T04:26:03;102881.50;;;-0.26;nan
70053;BME280;57398;52.032;4.376;2023-03-03T04:28:51;102883.25;;;-0.27;nan
70053;BME280;57398;52.032;4.376;2023-03-03T04:31:39;102880.91;;;-0.30;nan
70053;BME280;57398;52.032;4.376;2023-03-03T04:34:27;102872.16;;;-0.40;nan
70053;BME280;57398;52.032;4.376;2023-03-03T04:37:15;102885.38;;;-0.33;nan
70053;BME280;57398;52.032;4.376;2023-03-03T04:40:05;102885.88;;;-0.28;nan
70053;BME280;57398;52.032;4.376;2023-03-03T04:42:55;102888.97;;;-0.23;nan
70053;BME280;57398;52.032;4.376;2023-03-03T04:45:43;102893.78;;;-0.18;nan
70053;BME280;57398;52.032;4.376;2023-03-03T04:48:31;102896.25;;;-0.17;nan
70053;BME280;57398;52.032;4.376;2023-03-03T04:51:20;102894.50;;;-0.16;nan
70053;BME280;57398;52.032;4.376;2023-03-03T04:54:08;102895.25;;;-0.14;nan
70053;BME280;57398;52.032;4.376;2023-03-03T04:56:56;102907.94;;;-0.13;nan
70053;BME280;57398;52.032;4.376;2023-03-03T04:59:45;102909.91;;;-0.04;nan
70053;BME280;57398;52.032;4.376;2023-03-03T05:02:34;102917.19;;;0.03;nan
70053;BME280;57398;52.032;4.376;2023-03-03T05:05:22;102916.34;;;0.02;nan
70053;BME280;57398;52.032;4.376;2023-03-03T05:08:10;102916.97;;;0.06;nan
70053;BME280;57398;52.032;4.376;2023-03-03T05:10:58;102921.06;;;0.08;nan
70053;BME280;57398;52.032;4.376;2023-03-03T05:13:47;102924.56;;;0.07;nan
70053;BME280;57398;52.032;4.376;2023-03-03T05:16:36;102928.66;;;0.10;nan
70053;BME280;57398;52.032;4.376;2023-03-03T05:19:24;102933.75;;;0.10;nan
70053;BME280;57398;52.032;4.376;2023-03-03T05:22:13;102928.66;;;0.10;nan
70053;BME280;57398;52.032;4.376;2023-03-03T05:25:01;102932.00;;;0.10;nan
70053;BME280;57398;52.032;4.376;2023-03-03T05:27:49;102927.63;;;0.12;nan
70053;BME280;57398;52.032;4.376;2023-03-03T05:30:37;102928.44;;;0.13;nan
70053;BME280;57398;52.032;4.376;2023-03-03T05:33:27;102934.47;;;0.12;nan
70053;BME280;57398;52.032;4.376;2023-03-03T05:36:15;102930.72;;;0.17;nan
70053;BME280;57398;52.032;4.376;2023-03-03T05:39:03;102928.88;;;0.19;nan
70053;BME280;57398;52.032;4.376;2023-03-03T05:41:52;102927.13;;;0.20;nan
70053;BME280;57398;52.032;4.376;2023-03-03T05:44:40;102927.78;;;0.24;nan
70053;BME280;57398;52.032;4.376;2023-03-03T05:47:28;102920.91;;;0.24;nan
70053;BME280;57398;52.032;4.376;2023-03-03T05:50:18;102927.25;;;0.31;nan
70053;BME280;57398;52.032;4.376;2023-03-03T05:53:07;102929.53;;;0.36;nan
70053;BME280;57398;52.032;4.376;2023-03-03T05:55:55;102928.63;;;0.37;nan
70053;BME280;57398;52.032;4.376;2023-03-03T05:58:43;102923.38;;;0.38;nan
70053;BME280;57398;52.032;4.376;2023-03-03T06:01:31;102919.00;;;0.40;nan
70053;BME280;57398;52.032;4.376;2023-03-03T06:04:19;102928.19;;;0.43;nan
70053;BME280;57398;52.032;4.376;2023-03-03T06:07:09;102930.56;;;0.46;nan
70053;BME280;57398;52.032;4.376;2023-03-03T06:09:57;102941.53;;;0.48;nan
70053;BME280;57398;52.032;4.376;2023-03-03T06:12:45;102930.47;;;0.48;nan
70053;BME280;57398;52.032;4.376;2023-03-03T06:15:33;102940.09;;;0.44;nan
70053;BME280;57398;52.032;4.376;2023-03-03T06:18:21;102940.59;;;0.49;nan
70053;BME280;57398;52.032;4.376;2023-03-03T06:21:09;102946.66;;;0.48;nan
70053;BME280;57398;52.032;4.376;2023-03-03T06:23:58;102941.41;;;0.50;nan
70053;BME280;57398;52.032;4.376;2023-03-03T06:26:46;102944.09;;;0.48;nan
70053;BME280;57398;52.032;4.376;2023-03-03T06:29:35;102953.16;;;0.52;nan
70053;BME280;57398;52.032;4.376;2023-03-03T06:32:23;102960.25;;;0.49;nan
70053;BME280;57398;52.032;4.376;2023-03-03T06:35:11;102955.94;;;0.49;nan
70053;BME280;57398;52.032;4.376;2023-03-03T06:37:59;102960.25;;;0.49;nan
70053;BME280;57398;52.032;4.376;2023-03-03T06:40:48;102963.09;;;0.44;nan
70053;BME280;57398;52.032;4.376;2023-03-03T06:43:37;102962.50;;;0.53;nan
70053;BME280;57398;52.032;4.376;2023-03-03T06:46:26;102960.66;;;0.55;nan
70053;BME280;57398;52.032;4.376;2023-03-03T06:49:14;102964.94;;;0.55;nan
70053;BME280;57398;52.032;4.376;2023-03-03T06:52:10;102968.22;;;0.57;nan
70053;BME280;57398;52.032;4.376;2023-03-03T06:55:01;102972.53;;;0.56;nan
70053;BME280;57398;52.032;4.376;2023-03-03T06:57:58;102981.53;;;0.62;nan
70053;BME280;57398;52.032;4.376;2023-03-03T07:00:51;102984.00;;;0.63;nan
70053;BME280;57398;52.032;4.376;2023-03-03T07:03:40;102986.53;;;0.63;nan
70053;BME280;57398;52.032;4.376;2023-03-03T07:06:28;102981.84;;;0.70;nan
70053;BME280;57398;52.032;4.376;2023-03-03T07:09:20;102989.44;;;0.72;nan
70053;BME280;57398;52.032;4.376;2023-03-03T07:12:12;102984.81;;;0.77;nan
70053;BME280;57398;52.032;4.376;2023-03-03T07:15:14;102992.41;;;0.78;nan
70053;BME280;57398;52.032;4.376;2023-03-03T07:18:05;103000.22;;;0.90;nan
70053;BME280;57398;52.032;4.376;2023-03-03T07:21:12;102999.28;;;0.91;nan
70053;BME280;57398;52.032;4.376;2023-03-03T07:24:16;103002.66;;;0.91;nan
70053;BME280;57398;52.032;4.376;2023-03-03T07:27:10;102998.47;;;0.90;nan
70053;BME280;57398;52.032;4.376;2023-03-03T07:30:19;103008.69;;;0.90;nan
70053;BME280;57398;52.032;4.376;2023-03-03T07:33:18;103004.09;;;0.82;nan
70053;BME280;57398;52.032;4.376;2023-03-03T07:36:23;103009.41;;;0.92;nan
70053;BME280;57398;52.032;4.376;2023-03-03T07:39:24;103012.47;;;0.97;nan
70053;BME280;57398;52.032;4.376;2023-03-03T07:42:19;103009.31;;;1.07;nan
70053;BME280;57398;52.032;4.376;2023-03-03T07:45:23;103022.03;;;1.08;nan
70053;BME280;57398;52.032;4.376;2023-03-03T07:48:18;103014.66;;;1.03;nan
70053;BME280;57398;52.032;4.376;2023-03-03T07:51:18;103019.56;;;1.07;nan
70053;BME280;57398;52.032;4.376;2023-03-03T07:54:22;103023.56;;;1.11;nan
70053;BME280;57398;52.032;4.376;2023-03-03T07:57:22;103019.25;;;1.24;nan
70053;BME280;57398;52.032;4.376;2023-03-03T08:03:49;103030.81;;;1.30;nan
70053;BME280;57398;52.032;4.376;2023-03-03T08:06:43;103039.72;;;1.37;nan
70053;BME280;57398;52.032;4.376;2023-03-03T08:12:37;103054.66;;;1.56;nan
70053;BME280;57398;52.032;4.376;2023-03-03T08:15:30;103047.38;;;1.62;nan
70053;BME280;57398;52.032;4.376;2023-03-03T08:18:22;103049.00;;;1.76;nan
70053;BME280;57398;52.032;4.376;2023-03-03T08:21:13;103057.63;;;1.75;nan
70053;BME280;57398;52.032;4.376;2023-03-03T08:24:02;103064.78;;;1.83;nan
70053;BME280;57398;52.032;4.376;2023-03-03T08:26:50;103063.56;;;1.88;nan
70053;BME280;57398;52.032;4.376;2023-03-03T08:29:38;103075.19;;;2.05;nan
70053;BME280;57398;52.032;4.376;2023-03-03T08:32:26;103082.38;;;2.13;nan
70053;BME280;57398;52.032;4.376;2023-03-03T08:35:15;103085.50;;;2.29;nan
70053;BME280;57398;52.032;4.376;2023-03-03T08:38:05;103082.94;;;2.29;nan
70053;BME280;57398;52.032;4.376;2023-03-03T08:40:53;103084.13;;;2.37;nan
70053;BME280;57398;52.032;4.376;2023-03-03T08:43:42;103083.16;;;2.50;nan
70053;BME280;57398;52.032;4.376;2023-03-03T08:46:31;103087.28;;;2.64;nan
70053;BME280;57398;52.032;4.376;2023-03-03T08:49:20;103086.16;;;2.68;nan
70053;BME280;57398;52.032;4.376;2023-03-03T08:52:08;103093.75;;;2.81;nan
70053;BME280;57398;52.032;4.376;2023-03-03T08:54:57;103099.47;;;2.73;nan
70053;BME280;57398;52.032;4.376;2023-03-03T08:57:46;103100.03;;;2.77;nan
70053;BME280;57398;52.032;4.376;2023-03-03T09:00:34;103104.31;;;2.89;nan
70053;BME280;57398;52.032;4.376;2023-03-03T09:03:22;103104.53;;;2.86;nan
70053;BME280;57398;52.032;4.376;2023-03-03T09:06:10;103101.31;;;2.96;nan
70053;BME280;57398;52.032;4.376;2023-03-03T09:08:59;103105.19;;;3.12;nan
70053;BME280;57398;52.032;4.376;2023-03-03T09:11:48;103107.69;;;3.36;nan
70053;BME280;57398;52.032;4.376;2023-03-03T09:14:36;103109.38;;;3.71;nan
70053;BME280;57398;52.032;4.376;2023-03-03T09:17:26;103098.13;;;3.61;nan
70053;BME280;57398;52.032;4.376;2023-03-03T09:20:38;103089.50;;;3.73;nan
70053;BME280;57398;52.032;4.376;2023-03-03T09:23:33;103091.13;;;3.86;nan
70053;BME280;57398;52.032;4.376;2023-03-03T09:26:27;103088.09;;;3.92;nan
70053;BME280;57398;52.032;4.376;2023-03-03T09:29:24;103082.25;;;3.78;nan
70053;BME280;57398;52.032;4.376;2023-03-03T09:32:23;103080.84;;;3.74;nan
70053;BME280;57398;52.032;4.376;2023-03-03T09:35:32;103075.09;;;3.71;nan
70053;BME280;57398;52.032;4.376;2023-03-03T09:38:28;103076.31;;;3.67;nan
70053;BME280;57398;52.032;4.376;2023-03-03T09:41:40;103072.88;;;4.00;nan
70053;BME280;57398;52.032;4.376;2023-03-03T09:44:49;103080.91;;;4.18;nan
70053;BME280;57398;52.032;4.376;2023-03-03T09:47:59;103076.31;;;3.78;nan
70053;BME280;57398;52.032;4.376;2023-03-03T09:51:02;103079.09;;;3.64;nan
70053;BME280;57398;52.032;4.376;2023-03-03T09:54:07;103080.75;;;3.76;nan
70053;BME280;57398;52.032;4.376;2023-03-03T09:57:04;103075.78;;;3.95;nan
70053;BME280;57398;52.032;4.376;2023-03-03T10:00:15;103073.69;;;4.01;nan
70053;BME280;57398;52.032;4.376;2023-03-03T10:03:25;103068.88;;;4.07;nan
70053;BME280;57398;52.032;4.376;2023-03-03T10:06:24;103070.00;;;4.26;nan
70053;BME280;57398;52.032;4.376;2023-03-03T10:09:37;103069.78;;;4.29;nan
70053;BME280;57398;52.032;4.376;2023-03-03T10:12:30;103067.13;;;4.51;nan
70053;BME280;57398;52.032;4.376;2023-03-03T10:15:31;103060.22;;;4.52;nan
70053;BME280;57398;52.032;4.376;2023-03-03T10:18:28;103063.94;;;4.59;nan
70053;BME280;57398;52.032;4.376;2023-03-03T10:21:23;103058.81;;;4.80;nan
70053;BME280;57398;52.032;4.376;2023-03-03T10:24:23;103059.75;;;5.00;nan
70053;BME280;57398;52.032;4.376;2023-03-03T10:27:27;103058.41;;;5.06;nan
70053;BME280;57398;52.032;4.376;2023-03-03T10:30:27;103059.41;;;5.45;nan
70053;BME280;57398;52.032;4.376;2023-03-03T10:33:38;103046.59;;;5.55;nan
70053;BME280;57398;52.032;4.376;2023-03-03T10:36:44;103031.88;;;5.86;nan
70053;BME280;57398;52.032;4.376;2023-03-03T10:39:47;103020.53;;;6.18;nan
70053;BME280;57398;52.032;4.376;2023-03-03T10:42:54;103004.06;;;6.77;nan
70053;BME280;57398;52.032;4.376;2023-03-03T10:46:03;102989.28;;;7.07;nan
70053;BME280;57398;52.032;4.376;2023-03-03T10:49:16;102977.63;;;6.46;nan
70053;BME280;57398;52.032;4.376;2023-03-03T10:52:29;102974.72;;;6.59;nan
70053;BME280;57398;52.032;4.376;2023-03-03T10:55:27;102970.50;;;7.05;nan
70053;BME280;57398;52.032;4.376;2023-03-03T10:58:27;102961.47;;;7.19;nan
70053;BME280;57398;52.032;4.376;2023-03-03T11:01:26;102959.56;;;7.21;nan
70053;BME280;57398;52.032;4.376;2023-03-03T11:04:42;102956.69;;;6.39;nan
70053;BME280;57398;52.032;4.376;2023-03-03T11:07:38;102958.94;;;6.62;nan
70053;BME280;57398;52.032;4.376;2023-03-03T11:10:43;102955.22;;;6.84;nan
70053;BME280;57398;52.032;4.376;2023-03-03T11:13:40;102943.78;;;6.86;nan
70053;BME280;57398;52.032;4.376;2023-03-03T11:16:44;102941.47;;;6.93;nan
70053;BME280;57398;52.032;4.376;2023-03-03T11:19:55;102943.78;;;6.86;nan
70053;BME280;57398;52.032;4.376;2023-03-03T11:22:53;102942.66;;;6.61;nan
70053;BME280;57398;52.032;4.376;2023-03-03T11:25:49;102935.47;;;6.55;nan
70053;BME280;57398;52.032;4.376;2023-03-03T11:28:54;102932.56;;;6.68;nan
70053;BME280;57398;52.032;4.376;2023-03-03T11:31:52;102931.34;;;6.72;nan
70053;BME280;57398;52.032;4.376;2023-03-03T11:34:52;102932.66;;;6.86;nan
70053;BME280;57398;52.032;4.376;2023-03-03T11:37:45;102917.47;;;7.10;nan
70053;BME280;57398;52.032;4.376;2023-03-03T11:40:44;102919.44;;;7.62;nan
70053;BME280;57398;52.032;4.376;2023-03-03T11:43:37;102920.78;;;7.84;nan
70053;BME280;57398;52.032;4.376;2023-03-03T11:46:35;102915.03;;;7.90;nan
70053;BME280;57398;52.032;4.376;2023-03-03T11:49:28;102910.13;;;8.05;nan
70053;BME280;57398;52.032;4.376;2023-03-03T11:52:24;102901.41;;;8.32;nan
70053;BME280;57398;52.032;4.376;2023-03-03T11:55:16;102900.00;;;8.64;nan
70053;BME280;57398;52.032;4.376;2023-03-03T11:58:13;102898.88;;;8.41;nan
70053;BME280;57398;52.032;4.376;2023-03-03T12:01:14;102895.56;;;8.04;nan
70053;BME280;57398;52.032;4.376;2023-03-03T12:04:10;102889.44;;;7.69;nan
70053;BME280;57398;52.032;4.376;2023-03-03T12:07:12;102901.69;;;7.31;nan
70053;BME280;57398;52.032;4.376;2023-03-03T12:10:14;102896.72;;;6.92;nan
70053;BME280;57398;52.032;4.376;2023-03-03T12:13:13;102900.09;;;6.65;nan
70053;BME280;57398;52.032;4.376;2023-03-03T12:16:10;102903.41;;;6.58;nan
70053;BME280;57398;52.032;4.376;2023-03-03T12:19:17;102903.66;;;6.55;nan
70053;BME280;57398;52.032;4.376;2023-03-03T12:22:30;102907.22;;;6.34;nan
70053;BME280;57398;52.032;4.376;2023-03-03T12:25:23;102903.72;;;6.16;nan
70053;BME280;57398;52.032;4.376;2023-03-03T12:28:16;102897.78;;;6.05;nan
70053;BME280;57398;52.032;4.376;2023-03-03T12:31:13;102900.19;;;6.26;nan
70053;BME280;57398;52.032;4.376;2023-03-03T12:34:14;102898.56;;;6.35;nan
70053;BME280;57398;52.032;4.376;2023-03-03T12:37:17;102897.03;;;6.42;nan
70053;BME280;57398;52.032;4.376;2023-03-03T12:40:13;102895.22;;;6.53;nan
70053;BME280;57398;52.032;4.376;2023-03-03T12:43:15;102891.19;;;6.40;nan
70053;BME280;57398;52.032;4.376;2023-03-03T12:46:11;102888.63;;;6.40;nan
70053;BME280;57398;52.032;4.376;2023-03-03T12:49:03;102899.34;;;6.45;nan
70053;BME280;57398;52.032;4.376;2023-03-03T12:52:04;102894.16;;;6.45;nan
70053;BME280;57398;52.032;4.376;2023-03-03T12:55:04;102896.91;;;6.34;nan
70053;BME280;57398;52.032;4.376;2023-03-03T12:58:03;102893.66;;;6.32;nan
70053;BME280;57398;52.032;4.376;2023-03-03T13:01:04;102890.22;;;6.41;nan
70053;BME280;57398;52.032;4.376;2023-03-03T13:04:00;102889.25;;;6.52;nan
70053;BME280;57398;52.032;4.376;2023-03-03T13:06:55;102891.41;;;6.57;nan
70053;BME280;57398;52.032;4.376;2023-03-03T13:10:01;102893.59;;;6.61;nan
70053;BME280;57398;52.032;4.376;2023-03-03T13:12:52;102888.06;;;6.84;nan
70053;BME280;57398;52.032;4.376;2023-03-03T13:15:49;102889.34;;;6.70;nan
70053;BME280;57398;52.032;4.376;2023-03-03T13:18:50;102882.16;;;6.91;nan
70053;BME280;57398;52.032;4.376;2023-03-03T13:21:44;102871.03;;;6.91;nan
70053;BME280;57398;52.032;4.376;2023-03-03T13:24:38;102878.97;;;7.07;nan
70053;BME280;57398;52.032;4.376;2023-03-03T13:27:35;102870.47;;;6.97;nan
70053;BME280;57398;52.032;4.376;2023-03-03T13:30:26;102870.59;;;6.96;nan
70053;BME280;57398;52.032;4.376;2023-03-03T13:33:23;102866.22;;;7.06;nan
70053;BME280;57398;52.032;4.376;2023-03-03T13:36:13;102868.69;;;6.98;nan
70053;BME280;57398;52.032;4.376;2023-03-03T13:39:12;102861.28;;;7.12;nan
70053;BME280;57398;52.032;4.376;2023-03-03T13:42:05;102873.75;;;7.17;nan
70053;BME280;57398;52.032;4.376;2023-03-03T13:44:55;102869.16;;;7.11;nan
70053;BME280;57398;52.032;4.376;2023-03-03T13:47:47;102867.81;;;7.07;nan
70053;BME280;57398;52.032;4.376;2023-03-03T13:50:42;102863.94;;;7.21;nan
70053;BME280;57398;52.032;4.376;2023-03-03T13:53:41;102861.66;;;7.18;nan
70053;BME280;57398;52.032;4.376;2023-03-03T13:56:45;102873.47;;;6.92;nan
70053;BME280;57398;52.032;4.376;2023-03-03T13:59:43;102865.06;;;6.90;nan
70053;BME280;57398;52.032;4.376;2023-03-03T14:03:15;102861.28;;;7.12;nan
70053;BME280;57398;52.032;4.376;2023-03-03T14:06:14;102865.72;;;6.92;nan
70053;BME280;57398;52.032;4.376;2023-03-03T14:09:19;102866.47;;;6.75;nan
70053;BME280;57398;52.032;4.376;2023-03-03T14:12:15;102871.06;;;6.54;nan
70053;BME280;57398;52.032;4.376;2023-03-03T14:15:17;102868.00;;;6.68;nan
70053;BME280;57398;52.032;4.376;2023-03-03T14:18:23;102857.13;;;6.74;nan
70053;BME280;57398;52.032;4.376;2023-03-03T14:21:15;102866.41;;;6.67;nan
70053;BME280;57398;52.032;4.376;2023-03-03T14:24:10;102873.31;;;6.66;nan
70053;BME280;57398;52.032;4.376;2023-03-03T14:27:20;102869.41;;;6.62;nan
70053;BME280;57398;52.032;4.376;2023-03-03T14:30:33;102866.41;;;6.57;nan
70053;BME280;57398;52.032;4.376;2023-03-03T14:33:28;102863.88;;;6.47;nan
70053;BME280;57398;52.032;4.376;2023-03-03T14:36:25;102866.34;;;6.39;nan
70053;BME280;57398;52.032;4.376;2023-03-03T14:39:29;102869.97;;;6.56;nan
70053;BME280;57398;52.032;4.376;2023-03-03T14:42:31;102867.63;;;6.63;nan
70053;BME280;57398;52.032;4.376;2023-03-03T14:45:28;102865.75;;;6.55;nan
70053;BME280;57398;52.032;4.376;2023-03-03T14:48:18;102863.78;;;6.39;nan
70053;BME280;57398;52.032;4.376;2023-03-03T14:51:23;102860.66;;;6.36;nan
70053;BME280;57398;52.032;4.376;2023-03-03T14:54:21;102866.66;;;6.26;nan
70053;BME280;57398;52.032;4.376;2023-03-03T14:57:14;102870.03;;;6.27;nan
70053;BME280;57398;52.032;4.376;2023-03-03T15:00:26;102858.66;;;6.20;nan
70053;BME280;57398;52.032;4.376;2023-03-03T15:03:20;102852.81;;;6.18;nan
70053;BME280;57398;52.032;4.376;2023-03-03T15:06:10;102853.88;;;6.25;nan
70053;BME280;57398;52.032;4.376;2023-03-03T15:09:30;102853.44;;;6.29;nan
70053;BME280;57398;52.032;4.376;2023-03-03T15:12:23;102854.53;;;6.27;nan
70053;BME280;57398;52.032;4.376;2023-03-03T15:15:17;102850.94;;;6.10;nan
70053;BME280;57398;52.032;4.376;2023-03-03T15:18:09;102852.81;;;6.18;nan
70053;BME280;57398;52.032;4.376;2023-03-03T15:21:02;102846.00;;;6.26;nan
70053;BME280;57398;52.032;4.376;2023-03-03T15:23:55;102845.34;;;6.15;nan
70053;BME280;57398;52.032;4.376;2023-03-03T15:26:53;102848.34;;;6.10;nan
70053;BME280;57398;52.032;4.376;2023-03-03T15:29:54;102850.47;;;6.24;nan
70053;BME280;57398;52.032;4.376;2023-03-03T15:32:48;102844.19;;;6.37;nan
70053;BME280;57398;52.032;4.376;2023-03-03T15:35:47;102837.97;;;6.29;nan
70053;BME280;57398;52.032;4.376;2023-03-03T15:38:46;102832.31;;;6.06;nan
70053;BME280;57398;52.032;4.376;2023-03-03T15:41:40;102833.97;;;6.07;nan
70053;BME280;57398;52.032;4.376;2023-03-03T15:44:40;102840.19;;;6.15;nan
70053;BME280;57398;52.032;4.376;2023-03-03T15:47:52;102836.13;;;6.02;nan
70053;BME280;57398;52.032;4.376;2023-03-03T15:50:50;102837.63;;;5.95;nan
70053;BME280;57398;52.032;4.376;2023-03-03T15:53:56;102831.75;;;5.93;nan